Time;durP1;ratioP1;P1;durP2;ratioP2;P2;SDS_P1;SDS_P2;PMS_P1;PMS_P2;Temp;Humidity;BMP_temperature;BMP_pressure;BME280_temperature;BME280_humidity;BME280_pressure;Samples;Min_cycle;Max_cycle;Signal;HPM_P1;HPM_P2
2023/03/07 00:00:31;;;;;;;13.23;8.77;;;;;;;;;;5019621;28;20181;-74
2023/03/07 00:02:56;;;;;;;14.23;9.67;;;;;;;;;;5041871;28;20175;-74
2023/03/07 00:05:21;;;;;;;16.57;9.07;;;;;;;;;;5037781;28;20179;-74
2023/03/07 00:07:46;;;;;;;14.07;9.27;;;;;;;;;;5026363;28;20181;-74
2023/03/07 00:10:12;;;;;;;10.97;8.07;;;;;;;;;;5025257;28;20173;-74
2023/03/07 00:12:37;;;;;;;11.50;8.30;;;;;;;;;;5043792;28;20228;-74
2023/03/07 00:15:03;;;;;;;12.60;9.03;;;;;;;;;;5046498;28;20212;-74
2023/03/07 00:17:28;;;;;;;11.70;9.13;;;;;;;;;;5017259;28;20517;-74
2023/03/07 00:19:53;;;;;;;14.10;10.30;;;;;;;;;;5011110;28;20189;-74
2023/03/07 00:22:19;;;;;;;13.77;8.93;;;;;;;;;;5025314;28;20171;-74
2023/03/07 00:24:46;;;;;;;13.67;9.17;;;;;;;;;;5002499;28;20198;-74
2023/03/07 00:27:11;;;;;;;14.43;10.17;;;;;;;;;;5005367;28;20187;-74
2023/03/07 00:29:36;;;;;;;14.27;9.27;;;;;;;;;;5011165;28;20182;-74
2023/03/07 00:32:02;;;;;;;14.83;9.77;;;;;;;;;;5001273;28;20200;-74
2023/03/07 00:34:27;;;;;;;16.87;10.37;;;;;;;;;;5004302;28;20208;-74
2023/03/07 00:36:52;;;;;;;16.00;10.70;;;;;;;;;;5001701;28;20206;-74
2023/03/07 00:39:17;;;;;;;13.30;9.03;;;;;;;;;;5023624;28;20187;-75
2023/03/07 00:41:42;;;;;;;13.17;8.47;;;;;;;;;;5008646;28;20194;-74
2023/03/07 00:44:08;;;;;;;14.90;10.77;;;;;;;;;;5008995;28;20171;-74
2023/03/07 00:46:33;;;;;;;11.37;8.33;;;;;;;;;;5008531;28;20210;-74
2023/03/07 00:48:58;;;;;;;12.77;8.17;;;;;;;;;;5026993;28;20175;-74
2023/03/07 00:51:23;;;;;;;13.97;9.57;;;;;;;;;;5000640;28;20214;-74
2023/03/07 00:53:49;;;;;;;16.17;9.43;;;;;;;;;;5009307;28;20191;-74
2023/03/07 00:56:16;;;;;;;13.20;9.63;;;;;;;;;;5007803;28;20227;-74
2023/03/07 00:58:41;;;;;;;13.20;9.80;;;;;;;;;;5027300;28;20178;-74
2023/03/07 01:01:08;;;;;;;13.43;9.97;;;;;;;;;;5009246;28;20174;-74
2023/03/07 01:03:34;;;;;;;14.93;10.00;;;;;;;;;;5018045;28;20207;-74
2023/03/07 01:06:03;;;;;;;13.57;8.63;;;;;;;;;;5005407;28;20206;-74
2023/03/07 01:08:28;;;;;;;20.00;12.63;;;;;;;;;;5004078;28;20183;-73
2023/03/07 01:10:56;;;;;;;13.23;10.30;;;;;;;;;;5001271;28;20190;-74
2023/03/07 01:13:22;;;;;;;16.30;11.67;;;;;;;;;;5008504;28;20547;-74
2023/03/07 01:15:47;;;;;;;13.20;9.43;;;;;;;;;;5004501;28;20186;-74
2023/03/07 01:18:12;;;;;;;16.10;9.63;;;;;;;;;;5036693;28;20229;-74
2023/03/07 01:20:38;;;;;;;13.60;9.90;;;;;;;;;;5019238;28;20178;-74
2023/03/07 01:23:03;;;;;;;15.33;10.77;;;;;;;;;;5020671;28;20181;-74
2023/03/07 01:25:29;;;;;;;13.83;9.53;;;;;;;;;;5025325;28;20242;-74
2023/03/07 01:27:54;;;;;;;13.23;10.93;;;;;;;;;;5024995;28;20246;-74
2023/03/07 01:30:20;;;;;;;15.93;9.87;;;;;;;;;;5040863;28;20186;-74
2023/03/07 01:32:47;;;;;;;14.87;10.33;;;;;;;;;;5038166;28;20185;-74
2023/03/07 01:35:12;;;;;;;16.63;11.53;;;;;;;;;;5039034;28;20181;-75
2023/03/07 01:37:38;;;;;;;14.90;9.63;;;;;;;;;;5022590;28;20205;-74
2023/03/07 01:40:03;;;;;;;16.20;11.47;;;;;;;;;;5048293;28;20229;-74
2023/03/07 01:42:30;;;;;;;14.70;11.00;;;;;;;;;;5023491;28;20180;-74
2023/03/07 01:44:58;;;;;;;16.10;10.47;;;;;;;;;;5025963;28;20193;-74
2023/03/07 01:47:23;;;;;;;21.20;13.83;;;;;;;;;;5053736;28;20185;-74
2023/03/07 01:49:48;;;;;;;16.20;10.77;;;;;;;;;;5037994;28;20303;-74
2023/03/07 01:52:16;;;;;;;13.90;10.67;;;;;;;;;;5041467;28;20277;-74
2023/03/07 01:54:47;;;;;;;16.93;11.90;;;;;;;;;;5026198;28;20182;-74
2023/03/07 01:57:13;;;;;;;17.30;13.07;;;;;;;;;;5041022;28;20202;-73
2023/03/07 01:59:41;;;;;;;15.07;10.70;;;;;;;;;;5041885;28;20193;-74
2023/03/07 02:02:08;;;;;;;16.53;11.97;;;;;;;;;;5023465;28;20178;-74
2023/03/07 02:04:43;;;;;;;17.00;11.13;;;;;;;;;;5022107;28;20196;-74
2023/03/07 02:07:09;;;;;;;17.07;10.37;;;;;;;;;;5026198;28;20209;-74
2023/03/07 02:09:34;;;;;;;16.03;10.53;;;;;;;;;;5021600;28;20182;-74
2023/03/07 02:12:00;;;;;;;18.10;12.53;;;;;;;;;;5029365;28;20210;-73
2023/03/07 02:14:26;;;;;;;18.43;11.80;;;;;;;;;;5024037;28;20198;-74
2023/03/07 02:16:52;;;;;;;20.87;13.60;;;;;;;;;;5043935;28;20206;-74
2023/03/07 02:19:29;;;;;;;15.60;10.60;;;;;;;;;;5025999;28;20182;-74
2023/03/07 02:22:11;;;;;;;17.23;11.57;;;;;;;;;;5017913;28;20189;-74
2023/03/07 02:24:42;;;;;;;11.83;8.60;;;;;;;;;;5031295;28;20178;-74
2023/03/07 02:27:07;;;;;;;17.90;10.97;;;;;;;;;;5047705;28;20185;-74
2023/03/07 02:29:32;;;;;;;17.00;11.23;;;;;;;;;;5024778;28;20179;-74
2023/03/07 02:31:57;;;;;;;15.70;10.60;;;;;;;;;;5029515;28;20206;-74
2023/03/07 02:34:24;;;;;;;14.50;10.30;;;;;;;;;;5034751;28;20182;-74
2023/03/07 02:36:52;;;;;;;16.33;10.57;;;;;;;;;;5025839;28;20234;-74
2023/03/07 02:39:18;;;;;;;16.83;11.23;;;;;;;;;;5028676;28;20177;-74
2023/03/07 02:41:43;;;;;;;15.90;11.00;;;;;;;;;;5025579;28;20177;-73
2023/03/07 02:44:08;;;;;;;17.77;12.63;;;;;;;;;;5024077;28;20175;-74
2023/03/07 02:46:33;;;;;;;17.27;11.50;;;;;;;;;;5041054;28;20266;-74
2023/03/07 02:48:59;;;;;;;15.20;10.20;;;;;;;;;;5041253;28;20213;-74
2023/03/07 02:51:24;;;;;;;14.10;10.57;;;;;;;;;;5044530;28;20171;-74
2023/03/07 02:53:50;;;;;;;14.67;10.87;;;;;;;;;;5051918;28;20187;-74
2023/03/07 02:56:15;;;;;;;15.83;11.77;;;;;;;;;;5030510;28;20209;-74
2023/03/07 02:58:40;;;;;;;15.13;11.17;;;;;;;;;;5046006;28;20174;-73
2023/03/07 03:01:05;;;;;;;16.73;11.63;;;;;;;;;;5029698;28;20185;-73
2023/03/07 03:03:32;;;;;;;16.33;11.00;;;;;;;;;;5039426;28;20178;-73
2023/03/07 03:05:57;;;;;;;14.13;10.17;;;;;;;;;;5024312;28;20274;-73
2023/03/07 03:08:22;;;;;;;16.37;9.70;;;;;;;;;;5046117;28;20258;-73
2023/03/07 03:10:51;;;;;;;17.03;10.77;;;;;;;;;;5048387;28;20170;-74
2023/03/07 03:13:17;;;;;;;16.97;10.43;;;;;;;;;;5047846;28;20237;-74
2023/03/07 03:15:42;;;;;;;15.33;9.70;;;;;;;;;;5047882;28;20198;-74
2023/03/07 03:18:07;;;;;;;14.43;11.27;;;;;;;;;;5020276;28;20241;-74
2023/03/07 03:20:32;;;;;;;17.33;10.07;;;;;;;;;;5014176;28;20179;-74
2023/03/07 03:22:58;;;;;;;14.10;10.17;;;;;;;;;;5001303;28;20186;-74
2023/03/07 03:25:23;;;;;;;15.43;10.70;;;;;;;;;;5017503;28;20258;-74
2023/03/07 03:27:49;;;;;;;17.13;9.37;;;;;;;;;;5010193;28;20237;-73
2023/03/07 03:30:15;;;;;;;18.23;12.50;;;;;;;;;;5002019;28;20183;-74
2023/03/07 03:32:40;;;;;;;15.33;9.60;;;;;;;;;;5004277;28;20210;-73
2023/03/07 03:35:06;;;;;;;19.57;10.37;;;;;;;;;;4998835;28;20195;-74
2023/03/07 03:37:31;;;;;;;17.57;10.43;;;;;;;;;;5023474;28;20221;-73
2023/03/07 03:39:57;;;;;;;15.87;9.33;;;;;;;;;;5012280;28;20220;-74
2023/03/07 03:42:22;;;;;;;16.40;10.60;;;;;;;;;;5024406;28;20302;-73
2023/03/07 03:44:48;;;;;;;18.50;10.73;;;;;;;;;;5003840;28;20212;-73
2023/03/07 03:47:13;;;;;;;15.37;10.00;;;;;;;;;;5002720;28;20182;-74
2023/03/07 03:49:38;;;;;;;17.57;10.00;;;;;;;;;;5005316;28;20186;-73
2023/03/07 03:52:04;;;;;;;15.27;9.40;;;;;;;;;;5006582;28;20186;-73
2023/03/07 03:54:29;;;;;;;16.07;9.73;;;;;;;;;;5002579;28;20176;-74
2023/03/07 03:56:55;;;;;;;28.23;16.50;;;;;;;;;;5024037;28;20204;-74
2023/03/07 03:59:21;;;;;;;20.40;12.10;;;;;;;;;;5014447;28;20178;-73
2023/03/07 04:01:46;;;;;;;25.67;15.13;;;;;;;;;;5000070;28;20260;-74
2023/03/07 04:04:12;;;;;;;17.53;11.17;;;;;;;;;;5011109;28;20179;-74
2023/03/07 04:06:37;;;;;;;17.07;10.40;;;;;;;;;;5007368;28;20183;-73
2023/03/07 04:09:03;;;;;;;15.43;11.13;;;;;;;;;;5010979;28;20221;-73
2023/03/07 04:11:29;;;;;;;19.50;11.80;;;;;;;;;;5020329;28;20199;-73
2023/03/07 04:13:54;;;;;;;20.03;11.00;;;;;;;;;;5024990;28;20236;-74
2023/03/07 04:16:21;;;;;;;17.60;10.60;;;;;;;;;;5017886;28;20233;-73
2023/03/07 04:18:46;;;;;;;17.83;10.90;;;;;;;;;;5036333;28;20226;-73
2023/03/07 04:21:11;;;;;;;15.40;10.30;;;;;;;;;;5024503;28;20182;-74
2023/03/07 04:23:37;;;;;;;16.77;9.73;;;;;;;;;;5047651;28;20196;-73
2023/03/07 04:26:03;;;;;;;19.60;11.57;;;;;;;;;;5030181;28;20179;-73
2023/03/07 04:31:07;;;;;;;31.17;17.23;;;;;;;;;;5054166;28;20276;-72
2023/03/07 04:33:32;;;;;;;18.30;11.53;;;;;;;;;;5020274;28;20269;-73
2023/03/07 04:35:58;;;;;;;28.57;17.67;;;;;;;;;;5036657;28;20213;-73
2023/03/07 04:38:23;;;;;;;20.40;13.73;;;;;;;;;;5024765;28;20198;-73
2023/03/07 04:40:48;;;;;;;16.07;10.27;;;;;;;;;;5024835;28;20178;-73
2023/03/07 04:43:13;;;;;;;17.00;10.00;;;;;;;;;;5028062;28;20178;-73
2023/03/07 04:45:38;;;;;;;15.67;9.90;;;;;;;;;;5030008;28;20178;-73
2023/03/07 04:48:04;;;;;;;18.00;11.20;;;;;;;;;;5046226;28;20197;-73
2023/03/07 04:50:29;;;;;;;17.57;10.93;;;;;;;;;;5047193;28;20186;-73
2023/03/07 04:52:54;;;;;;;16.67;10.73;;;;;;;;;;5023020;28;20190;-72
2023/03/07 04:55:20;;;;;;;16.10;9.77;;;;;;;;;;5020940;28;20217;-73
2023/03/07 04:57:45;;;;;;;15.47;9.67;;;;;;;;;;5026707;28;20312;-73
2023/03/07 05:00:11;;;;;;;20.20;10.23;;;;;;;;;;5040958;28;20167;-73
2023/03/07 05:02:36;;;;;;;15.47;9.70;;;;;;;;;;5023266;28;20186;-74
2023/03/07 05:05:02;;;;;;;14.87;10.13;;;;;;;;;;5038076;28;20178;-73
2023/03/07 05:07:28;;;;;;;17.77;11.17;;;;;;;;;;5019844;28;20174;-73
2023/03/07 05:09:54;;;;;;;19.03;11.63;;;;;;;;;;5021979;28;20188;-73
2023/03/07 05:12:19;;;;;;;13.20;9.93;;;;;;;;;;5023133;28;20190;-73
2023/03/07 05:14:44;;;;;;;14.63;10.17;;;;;;;;;;5021181;28;20174;-73
2023/03/07 05:17:10;;;;;;;14.50;10.53;;;;;;;;;;5022879;28;20234;-73
2023/03/07 05:19:35;;;;;;;16.53;12.27;;;;;;;;;;5042986;28;20193;-73
2023/03/07 05:22:02;;;;;;;14.97;9.77;;;;;;;;;;5023552;28;20178;-73
2023/03/07 05:24:27;;;;;;;15.03;9.90;;;;;;;;;;5043803;28;20171;-73
2023/03/07 05:26:52;;;;;;;17.67;10.70;;;;;;;;;;5050867;28;20285;-73
2023/03/07 05:29:18;;;;;;;15.63;10.20;;;;;;;;;;5026149;28;20259;-73
2023/03/07 05:31:43;;;;;;;15.73;10.30;;;;;;;;;;5023192;28;20186;-73
2023/03/07 05:34:09;;;;;;;16.50;10.30;;;;;;;;;;5041200;28;20185;-73
2023/03/07 05:36:34;;;;;;;14.20;9.77;;;;;;;;;;5041600;28;20201;-73
2023/03/07 05:39:00;;;;;;;12.73;8.67;;;;;;;;;;5025365;28;20189;-73
2023/03/07 05:41:25;;;;;;;13.50;8.90;;;;;;;;;;5027020;28;20189;-73
2023/03/07 05:43:50;;;;;;;16.10;9.97;;;;;;;;;;5019898;28;20186;-73
2023/03/07 05:46:15;;;;;;;11.57;8.83;;;;;;;;;;5038308;28;20228;-73
2023/03/07 05:48:41;;;;;;;17.03;9.10;;;;;;;;;;5043855;28;20177;-73
2023/03/07 05:51:06;;;;;;;13.10;9.30;;;;;;;;;;5039460;28;20213;-73
2023/03/07 05:53:31;;;;;;;13.27;9.90;;;;;;;;;;5014617;28;20329;-73
2023/03/07 05:55:56;;;;;;;15.60;10.30;;;;;;;;;;5028928;28;20302;-73
2023/03/07 05:58:22;;;;;;;13.87;9.40;;;;;;;;;;5024132;28;20189;-73
2023/03/07 06:00:48;;;;;;;15.20;9.77;;;;;;;;;;5027249;28;20182;-73
2023/03/07 06:03:13;;;;;;;13.40;9.60;;;;;;;;;;5028337;28;20208;-73
2023/03/07 06:05:38;;;;;;;15.10;11.00;;;;;;;;;;5041467;28;20277;-73
2023/03/07 06:08:04;;;;;;;14.53;10.07;;;;;;;;;;5024156;28;20185;-73
2023/03/07 06:10:29;;;;;;;14.37;10.13;;;;;;;;;;5027923;28;20214;-73
2023/03/07 06:12:54;;;;;;;13.70;10.07;;;;;;;;;;5025631;28;20213;-73
2023/03/07 06:15:20;;;;;;;12.33;9.00;;;;;;;;;;5045363;28;20205;-76
2023/03/07 06:17:46;;;;;;;16.07;10.63;;;;;;;;;;5021352;28;20268;-73
2023/03/07 06:20:11;;;;;;;14.40;10.37;;;;;;;;;;5024945;28;20217;-73
2023/03/07 06:22:37;;;;;;;14.07;9.27;;;;;;;;;;5030279;28;20206;-73
2023/03/07 06:25:03;;;;;;;12.83;9.03;;;;;;;;;;5030518;28;20192;-73
2023/03/07 06:27:31;;;;;;;15.77;9.73;;;;;;;;;;5039620;28;20182;-73
2023/03/07 06:29:56;;;;;;;15.60;10.03;;;;;;;;;;5046635;28;20192;-73
2023/03/07 06:32:21;;;;;;;14.43;10.00;;;;;;;;;;5025336;28;20182;-73
2023/03/07 06:34:46;;;;;;;12.77;9.53;;;;;;;;;;5032987;28;20171;-73
2023/03/07 06:37:11;;;;;;;13.67;9.50;;;;;;;;;;5037453;28;20201;-73
2023/03/07 06:39:37;;;;;;;13.80;9.77;;;;;;;;;;5032541;28;20185;-73
2023/03/07 06:42:02;;;;;;;16.13;10.13;;;;;;;;;;5029504;28;20178;-73
2023/03/07 06:44:27;;;;;;;14.73;10.50;;;;;;;;;;5025207;28;20178;-73
2023/03/07 06:46:52;;;;;;;14.87;9.47;;;;;;;;;;5029478;28;20178;-73
2023/03/07 06:49:18;;;;;;;13.30;8.47;;;;;;;;;;5023993;28;20195;-73
2023/03/07 06:51:43;;;;;;;15.10;9.03;;;;;;;;;;5022617;28;20179;-73
2023/03/07 06:54:08;;;;;;;16.77;10.10;;;;;;;;;;5024478;28;20192;-73
2023/03/07 06:56:34;;;;;;;33.37;17.30;;;;;;;;;;5038287;28;20202;-73
2023/03/07 06:58:59;;;;;;;14.17;8.90;;;;;;;;;;5021509;28;20197;-73
2023/03/07 07:01:25;;;;;;;12.13;8.87;;;;;;;;;;5025519;28;20201;-73
2023/03/07 07:03:50;;;;;;;26.33;14.03;;;;;;;;;;5027976;28;20178;-73
2023/03/07 07:06:15;;;;;;;12.43;8.17;;;;;;;;;;5030430;28;20178;-73
2023/03/07 07:08:40;;;;;;;16.00;9.10;;;;;;;;;;5047040;28;20182;-73
2023/03/07 07:11:06;;;;;;;44.70;21.97;;;;;;;;;;5033176;28;20182;-73
2023/03/07 07:13:31;;;;;;;12.83;9.07;;;;;;;;;;5044368;28;20174;-74
2023/03/07 07:15:57;;;;;;;14.73;10.07;;;;;;;;;;5033467;28;20178;-73
2023/03/07 07:18:22;;;;;;;11.17;8.20;;;;;;;;;;5009073;28;20234;-73
2023/03/07 07:20:54;;;;;;;12.00;8.50;;;;;;;;;;5007519;28;20178;-73
2023/03/07 07:23:19;;;;;;;13.10;8.30;;;;;;;;;;5013012;28;20321;-73
2023/03/07 07:25:45;;;;;;;20.87;11.67;;;;;;;;;;5007223;28;20255;-73
2023/03/07 07:28:10;;;;;;;10.63;7.63;;;;;;;;;;5023086;28;20242;-73
2023/03/07 07:30:35;;;;;;;15.07;9.37;;;;;;;;;;5017149;28;20242;-73
2023/03/07 07:33:00;;;;;;;11.90;8.30;;;;;;;;;;5004073;28;20188;-73
2023/03/07 07:35:26;;;;;;;11.83;7.90;;;;;;;;;;5012114;28;20178;-73
2023/03/07 07:37:51;;;;;;;12.80;8.80;;;;;;;;;;5011591;28;20202;-73
2023/03/07 07:40:16;;;;;;;9.53;7.13;;;;;;;;;;5010989;28;20186;-74
2023/03/07 07:42:42;;;;;;;17.00;11.03;;;;;;;;;;5009432;28;20175;-73
2023/03/07 07:45:07;;;;;;;11.03;8.00;;;;;;;;;;5012299;28;20208;-73
2023/03/07 07:47:33;;;;;;;12.97;9.57;;;;;;;;;;5006556;28;20203;-74
2023/03/07 07:49:58;;;;;;;10.40;7.50;;;;;;;;;;5026630;28;20234;-74
2023/03/07 07:52:23;;;;;;;10.00;7.73;;;;;;;;;;5011887;28;20236;-74
2023/03/07 07:54:48;;;;;;;12.57;7.93;;;;;;;;;;5001245;28;20254;-74
2023/03/07 07:57:14;;;;;;;10.73;7.47;;;;;;;;;;5005399;28;20205;-74
2023/03/07 07:59:39;;;;;;;10.43;7.50;;;;;;;;;;5014742;28;20167;-74
2023/03/07 08:02:04;;;;;;;12.53;7.13;;;;;;;;;;5018341;28;20321;-74
2023/03/07 08:04:29;;;;;;;10.87;7.63;;;;;;;;;;5026729;28;20202;-74
2023/03/07 08:06:55;;;;;;;13.07;7.77;;;;;;;;;;5027452;28;20265;-74
2023/03/07 08:09:20;;;;;;;15.67;7.73;;;;;;;;;;4998320;28;20188;-74
2023/03/07 08:11:45;;;;;;;9.07;7.07;;;;;;;;;;5002720;28;20203;-74
2023/03/07 08:14:10;;;;;;;8.77;6.53;;;;;;;;;;5009108;28;20182;-74
2023/03/07 08:16:36;;;;;;;13.23;8.53;;;;;;;;;;4998712;28;20193;-75
2023/03/07 08:19:01;;;;;;;9.73;7.87;;;;;;;;;;5031025;28;20230;-74
2023/03/07 08:21:27;;;;;;;9.10;7.43;;;;;;;;;;5024235;28;20203;-74
2023/03/07 08:23:52;;;;;;;10.10;7.33;;;;;;;;;;5044528;28;20221;-74
2023/03/07 08:26:17;;;;;;;11.80;7.90;;;;;;;;;;5027901;28;20200;-74
2023/03/07 08:28:43;;;;;;;9.27;6.43;;;;;;;;;;5051275;28;20243;-74
2023/03/07 08:31:12;;;;;;;8.70;7.00;;;;;;;;;;5038381;28;20186;-74
2023/03/07 08:33:37;;;;;;;10.60;6.90;;;;;;;;;;5028697;28;20194;-74
2023/03/07 08:36:03;;;;;;;10.60;7.17;;;;;;;;;;5018118;28;20345;-74
2023/03/07 08:38:28;;;;;;;11.17;7.03;;;;;;;;;;5017188;28;20224;-74
2023/03/07 08:40:53;;;;;;;8.70;6.17;;;;;;;;;;5023913;28;20185;-74
2023/03/07 08:43:18;;;;;;;11.00;6.50;;;;;;;;;;5045515;28;20268;-74
2023/03/07 08:45:44;;;;;;;9.93;6.50;;;;;;;;;;5048297;28;20185;-74
2023/03/07 08:48:09;;;;;;;10.43;6.80;;;;;;;;;;5043023;28;20257;-75
2023/03/07 08:50:35;;;;;;;10.43;5.93;;;;;;;;;;5022808;28;20183;-74
2023/03/07 08:53:00;;;;;;;7.43;6.00;;;;;;;;;;5017123;28;20332;-74
2023/03/07 08:55:25;;;;;;;13.07;5.70;;;;;;;;;;5019554;28;20280;-74
2023/03/07 08:57:50;;;;;;;8.77;5.73;;;;;;;;;;5041403;28;20279;-74
2023/03/07 09:00:16;;;;;;;8.30;6.00;;;;;;;;;;5023323;28;20198;-74
2023/03/07 09:02:42;;;;;;;7.57;5.53;;;;;;;;;;5028449;28;20173;-74
2023/03/07 09:05:07;;;;;;;5.83;4.43;;;;;;;;;;5026868;28;20185;-74
2023/03/07 09:07:32;;;;;;;6.87;5.53;;;;;;;;;;5028752;28;20182;-74
2023/03/07 09:09:58;;;;;;;8.13;5.20;;;;;;;;;;5022594;28;20186;-74
2023/03/07 09:12:23;;;;;;;7.27;5.23;;;;;;;;;;5029908;28;20203;-74
2023/03/07 09:14:48;;;;;;;7.00;5.13;;;;;;;;;;5019862;28;20181;-75
2023/03/07 09:17:14;;;;;;;6.73;5.27;;;;;;;;;;5019307;28;20229;-74
2023/03/07 09:19:41;;;;;;;8.27;5.80;;;;;;;;;;5041497;28;20170;-74
2023/03/07 09:22:06;;;;;;;8.17;6.10;;;;;;;;;;5022981;28;20185;-74
2023/03/07 09:24:31;;;;;;;7.50;5.50;;;;;;;;;;5040241;28;20182;-74
2023/03/07 09:26:56;;;;;;;6.80;4.90;;;;;;;;;;5022176;28;20274;-74
2023/03/07 09:29:22;;;;;;;6.53;4.80;;;;;;;;;;5025115;28;20178;-74
2023/03/07 09:31:47;;;;;;;6.23;4.10;;;;;;;;;;5038171;28;20194;-74
2023/03/07 09:34:12;;;;;;;6.37;5.07;;;;;;;;;;5044231;28;20178;-75
2023/03/07 09:36:38;;;;;;;7.53;5.13;;;;;;;;;;5039573;28;20194;-74
2023/03/07 09:39:03;;;;;;;6.33;4.60;;;;;;;;;;5028272;28;20194;-74
2023/03/07 09:41:32;;;;;;;8.13;5.07;;;;;;;;;;5029036;28;20185;-75
2023/03/07 09:44:00;;;;;;;7.03;4.60;;;;;;;;;;5019493;28;20289;-75
2023/03/07 09:46:28;;;;;;;6.47;4.30;;;;;;;;;;5022760;28;20175;-75
2023/03/07 09:49:16;;;;;;;6.27;4.90;;;;;;;;;;5025072;28;20211;-76
2023/03/07 09:51:42;;;;;;;6.20;4.30;;;;;;;;;;5029154;28;20170;-75
2023/03/07 09:54:16;;;;;;;9.43;5.47;;;;;;;;;;5021739;28;20179;-76
2023/03/07 09:56:57;;;;;;;6.67;5.20;;;;;;;;;;5024802;28;20201;-75
2023/03/07 09:59:23;;;;;;;6.47;4.47;;;;;;;;;;5014972;28;20219;-75
2023/03/07 10:01:59;;;;;;;7.57;4.27;;;;;;;;;;5017515;28;20174;-75
2023/03/07 10:04:29;;;;;;;7.30;5.00;;;;;;;;;;5041589;28;20268;-75
2023/03/07 10:06:57;;;;;;;8.27;5.47;;;;;;;;;;5041684;28;20174;-75
2023/03/07 10:09:23;;;;;;;7.30;5.57;;;;;;;;;;5037518;28;20186;-75
2023/03/07 10:12:07;;;;;;;8.67;6.47;;;;;;;;;;5026647;28;20232;-75
2023/03/07 10:14:45;;;;;;;8.20;6.73;;;;;;;;;;5036876;28;20166;-75
2023/03/07 10:17:22;;;;;;;11.25;6.25;;;;;;;;;;4966159;28;1419310;-75
2023/03/07 10:19:49;;;;;;;8.27;6.13;;;;;;;;;;5027820;28;20328;-75
2023/03/07 10:22:28;;;;;;;8.93;6.43;;;;;;;;;;5021831;28;20195;-75
2023/03/07 10:24:53;;;;;;;10.57;7.10;;;;;;;;;;5021817;28;20170;-75
2023/03/07 10:27:21;;;;;;;9.00;6.77;;;;;;;;;;5014695;28;20193;-75
2023/03/07 10:29:48;;;;;;;8.30;6.00;;;;;;;;;;5018150;28;20178;-75
2023/03/07 10:32:24;;;;;;;7.80;6.43;;;;;;;;;;5044453;28;20182;-75
2023/03/07 10:34:56;;;;;;;8.17;7.07;;;;;;;;;;5028302;28;20170;-75
2023/03/07 10:37:26;;;;;;;11.50;6.77;;;;;;;;;;5030783;28;20202;-75
2023/03/07 10:39:53;;;;;;;8.40;7.10;;;;;;;;;;5022193;28;20185;-75
2023/03/07 10:42:21;;;;;;;7.47;5.60;;;;;;;;;;5037692;28;20174;-76
2023/03/07 10:44:47;;;;;;;8.27;6.93;;;;;;;;;;5029786;28;20176;-76
2023/03/07 10:47:23;;;;;;;7.93;6.30;;;;;;;;;;5024937;28;20178;-76
2023/03/07 10:49:51;;;;;;;9.07;6.70;;;;;;;;;;5031668;28;20180;-77
2023/03/07 10:52:16;;;;;;;6.60;5.90;;;;;;;;;;5033569;28;20174;-77
2023/03/07 10:54:41;;;;;;;9.50;5.90;;;;;;;;;;5048733;28;20194;-77
2023/03/07 10:57:06;;;;;;;6.27;5.57;;;;;;;;;;5024075;28;20201;-76
2023/03/07 10:59:32;;;;;;;7.23;5.00;;;;;;;;;;5028723;28;20173;-77
2023/03/07 11:01:58;;;;;;;12.47;6.47;;;;;;;;;;5016293;28;20174;-77
2023/03/07 11:04:27;;;;;;;8.00;5.43;;;;;;;;;;5026899;28;20177;-78
2023/03/07 11:06:53;;;;;;;5.93;4.10;;;;;;;;;;5026667;28;20181;-77
2023/03/07 11:09:41;;;;;;;8.17;6.27;;;;;;;;;;5047619;28;20181;-78
2023/03/07 11:12:09;;;;;;;8.70;6.13;;;;;;;;;;5020410;28;20200;-77
2023/03/07 11:15:00;;;;;;;7.07;6.37;;;;;;;;;;5021435;28;20237;-78
2023/03/07 11:17:29;;;;;;;8.70;5.33;;;;;;;;;;5005915;28;20220;-78
2023/03/07 11:19:57;;;;;;;11.13;6.50;;;;;;;;;;5031187;28;20550;-78
2023/03/07 11:22:23;;;;;;;6.93;6.23;;;;;;;;;;5022612;28;20174;-77
2023/03/07 11:24:50;;;;;;;5.30;4.37;;;;;;;;;;5024211;28;20265;-78
2023/03/07 11:27:24;;;;;;;8.23;6.23;;;;;;;;;;5028110;28;20187;-78
2023/03/07 11:30:08;;;;;;;6.70;5.90;;;;;;;;;;5024026;28;20193;-77
2023/03/07 11:32:35;;;;;;;7.90;5.20;;;;;;;;;;5022832;28;20174;-78
2023/03/07 11:35:21;;;;;;;8.60;6.60;;;;;;;;;;5024494;28;20235;-78
2023/03/07 11:38:16;;;;;;;16.40;6.60;;;;;;;;;;5025783;28;20221;-78
2023/03/07 11:40:46;;;;;;;7.13;5.00;;;;;;;;;;5024889;28;20175;-78
2023/03/07 11:43:22;;;;;;;7.13;5.10;;;;;;;;;;5021989;28;20254;-78
2023/03/07 11:45:59;;;;;;;5.97;5.13;;;;;;;;;;5021432;28;20257;-78
2023/03/07 11:48:40;;;;;;;6.83;5.57;;;;;;;;;;5021383;28;20178;-78
2023/03/07 11:51:10;;;;;;;6.90;5.60;;;;;;;;;;5031264;28;20205;-79
2023/03/07 11:53:35;;;;;;;7.97;5.10;;;;;;;;;;5038331;28;20224;-78
2023/03/07 11:56:10;;;;;;;7.35;4.95;;;;;;;;;;5030388;28;20170;-78
2023/03/07 11:58:42;;;;;;;8.97;5.97;;;;;;;;;;5029314;28;20205;-79
2023/03/07 12:01:15;;;;;;;7.40;5.27;;;;;;;;;;5018081;28;20205;-78
2023/03/07 12:03:49;;;;;;;5.83;5.17;;;;;;;;;;5025633;28;20332;-79
2023/03/07 12:06:20;;;;;;;7.30;6.23;;;;;;;;;;5048777;28;20433;-78
2023/03/07 12:09:04;;;;;;;6.93;5.43;;;;;;;;;;5032149;28;20197;-79
2023/03/07 12:11:40;;;;;;;6.70;6.00;;;;;;;;;;5022072;28;20202;-78
2023/03/07 12:14:05;;;;;;;6.80;5.57;;;;;;;;;;5020443;28;20240;-79
2023/03/07 12:16:49;;;;;;;4.73;3.57;;;;;;;;;;5027288;28;20203;-79
2023/03/07 12:19:22;;;;;;;7.50;4.93;;;;;;;;;;5002750;28;20219;-78
2023/03/07 12:22:12;;;;;;;7.77;4.50;;;;;;;;;;5008281;28;20395;-78
2023/03/07 12:24:42;;;;;;;7.70;5.50;;;;;;;;;;5010492;28;20250;-78
2023/03/07 12:27:17;;;;;;;10.03;6.80;;;;;;;;;;5007973;28;20269;-79
2023/03/07 12:30:09;;;;;;;4.77;3.83;;;;;;;;;;5003605;28;20202;-78
2023/03/07 12:32:34;;;;;;;5.20;4.10;;;;;;;;;;4998894;28;20199;-78
2023/03/07 12:35:04;;;;;;;6.53;4.53;;;;;;;;;;5010688;28;20233;-78
2023/03/07 12:37:50;;;;;;;4.27;3.70;;;;;;;;;;5005301;28;20232;-79
2023/03/07 12:40:19;;;;;;;7.20;4.87;;;;;;;;;;5026092;28;20182;-78
2023/03/07 12:42:54;;;;;;;6.77;4.80;;;;;;;;;;5013422;28;20230;-78
2023/03/07 12:45:20;;;;;;;4.83;3.80;;;;;;;;;;5004261;28;20189;-78
2023/03/07 12:47:58;;;;;;;5.00;3.83;;;;;;;;;;5006243;28;20171;-78
2023/03/07 12:50:29;;;;;;;5.60;4.00;;;;;;;;;;5004412;28;20179;-78
2023/03/07 12:53:05;;;;;;;7.27;4.60;;;;;;;;;;4999556;28;20183;-78
2023/03/07 12:55:38;;;;;;;5.80;4.20;;;;;;;;;;5007020;28;20182;-78
2023/03/07 12:58:12;;;;;;;5.20;4.50;;;;;;;;;;4999121;28;20208;-78
2023/03/07 13:00:45;;;;;;;5.23;4.40;;;;;;;;;;5005964;28;20263;-78
2023/03/07 13:03:16;;;;;;;5.13;4.30;;;;;;;;;;4997371;28;20206;-79
2023/03/07 13:05:42;;;;;;;5.10;4.27;;;;;;;;;;5007169;28;20204;-78
2023/03/07 13:08:12;;;;;;;5.53;4.13;;;;;;;;;;5006448;28;20283;-78
2023/03/07 13:10:38;;;;;;;5.13;4.17;;;;;;;;;;5009124;28;20278;-78
2023/03/07 13:13:23;;;;;;;5.50;4.40;;;;;;;;;;5010332;28;20298;-78
2023/03/07 13:16:02;;;;;;;4.70;3.57;;;;;;;;;;4996464;28;20184;-78
2023/03/07 13:18:28;;;;;;;6.80;5.40;;;;;;;;;;5014392;28;20234;-78
2023/03/07 13:21:07;;;;;;;5.53;3.30;;;;;;;;;;5005060;28;20263;-78
2023/03/07 13:23:33;;;;;;;11.87;5.40;;;;;;;;;;5021394;28;20200;-78
2023/03/07 13:25:58;;;;;;;5.57;4.63;;;;;;;;;;5000437;28;20180;-78
2023/03/07 13:28:32;;;;;;;5.70;5.10;;;;;;;;;;5009769;28;20250;-78
2023/03/07 13:31:09;;;;;;;7.37;4.27;;;;;;;;;;5002056;28;20183;-79
2023/03/07 13:33:34;;;;;;;8.00;5.90;;;;;;;;;;5005227;28;20175;-79
2023/03/07 13:35:59;;;;;;;5.13;4.60;;;;;;;;;;5000221;28;20178;-79
2023/03/07 13:38:31;;;;;;;7.50;5.10;;;;;;;;;;5004283;28;20212;-79
2023/03/07 13:40:57;;;;;;;6.20;4.70;;;;;;;;;;5007855;28;20206;-79
2023/03/07 13:43:23;;;;;;;5.83;4.27;;;;;;;;;;5026321;28;20206;-79
2023/03/07 13:45:55;;;;;;;6.93;4.57;;;;;;;;;;5022564;28;20171;-79
2023/03/07 13:48:23;;;;;;;7.43;5.77;;;;;;;;;;5005208;28;20175;-79
2023/03/07 13:50:52;;;;;;;5.57;4.27;;;;;;;;;;5002247;28;20190;-79
2023/03/07 13:53:37;;;;;;;7.00;5.53;;;;;;;;;;5008187;28;20185;-79
2023/03/07 13:56:15;;;;;;;7.13;5.27;;;;;;;;;;4990059;28;20218;-79
2023/03/07 13:58:46;;;;;;;11.90;8.60;;;;;;;;;;5009403;28;20210;-79
2023/03/07 14:01:13;;;;;;;6.33;4.53;;;;;;;;;;4999192;28;20190;-79
2023/03/07 14:04:08;;;;;;;7.17;5.00;;;;;;;;;;5027425;28;20178;-79
2023/03/07 14:06:36;;;;;;;4.97;4.07;;;;;;;;;;4991600;28;20218;-79
2023/03/07 14:09:03;;;;;;;5.30;4.80;;;;;;;;;;5002435;28;20243;-79
2023/03/07 14:11:49;;;;;;;6.53;5.07;;;;;;;;;;5002120;28;20284;-79
2023/03/07 14:14:37;;;;;;;9.77;5.67;;;;;;;;;;5019138;28;20282;-79
2023/03/07 14:17:13;;;;;;;8.33;5.47;;;;;;;;;;4966660;28;20216;-80
2023/03/07 14:19:56;;;;;;;10.00;5.97;;;;;;;;;;5024447;28;20174;-79
2023/03/07 14:22:22;;;;;;;9.43;5.63;;;;;;;;;;5019996;28;20273;-79
2023/03/07 14:25:05;;;;;;;16.47;9.07;;;;;;;;;;5024348;28;20178;-80
2023/03/07 14:27:30;;;;;;;7.53;5.57;;;;;;;;;;5052260;28;20178;-79
2023/03/07 14:29:55;;;;;;;18.27;9.73;;;;;;;;;;5040822;28;20182;-79
2023/03/07 14:32:30;;;;;;;10.20;6.27;;;;;;;;;;5025189;28;20182;-80
2023/03/07 14:34:56;;;;;;;24.27;12.63;;;;;;;;;;5026974;28;20184;-80
2023/03/07 14:37:26;;;;;;;22.57;12.30;;;;;;;;;;5046074;28;20217;-80